Time;durP1;ratioP1;P1;durP2;ratioP2;P2;SDS_P1;SDS_P2;PMS_P1;PMS_P2;Temp;Humidity;BMP_temperature;BMP_pressure;BME280_temperature;BME280_humidity;BME280_pressure;Samples;Min_cycle;Max_cycle;Signal;HPM_P1;HPM_P2
2022/05/01 00:00:28;;;;;;;;;;;5.50;99.90;;;;;;5048803;28;19932;-77
2022/05/01 00:02:55;;;;;;;;;;;5.50;99.90;;;;;;5048073;28;19952;-78
2022/05/01 00:05:22;;;;;;;;;;;5.50;99.90;;;;;;5044392;28;19967;-77
2022/05/01 00:07:48;;;;;;;;;;;5.40;99.90;;;;;;5040703;28;19964;-76
2022/05/01 00:10:16;;;;;;;;;;;5.40;99.90;;;;;;5042965;28;19947;-78
2022/05/01 00:12:43;;;;;;;;;;;5.40;99.90;;;;;;5045186;28;19925;-77
2022/05/01 00:15:10;;;;;;;;;;;5.40;99.90;;;;;;5044602;28;20653;-77
2022/05/01 00:17:37;;;;;;;;;;;5.30;99.90;;;;;;5038638;28;19939;-77
2022/05/01 00:20:04;;;;;;;;;;;5.20;99.90;;;;;;5041831;28;19971;-77
2022/05/01 00:22:31;;;;;;;;;;;5.20;99.90;;;;;;5047784;28;19943;-77
2022/05/01 00:24:57;;;;;;;;;;;5.10;99.90;;;;;;5045117;28;20410;-76
2022/05/01 00:27:25;;;;;;;;;;;5.10;99.90;;;;;;5046172;28;19925;-77
2022/05/01 00:29:52;;;;;;;;;;;5.10;99.90;;;;;;5049523;28;20021;-76
2022/05/01 00:32:19;;;;;;;;;;;5.00;99.90;;;;;;5045051;28;20004;-77
2022/05/01 00:37:30;;;;;;;;;;;5.00;99.90;;;;;;5048557;28;19931;-77
2022/05/01 00:39:57;;;;;;;;;;;4.90;99.90;;;;;;5050488;28;19978;-77
2022/05/01 00:42:24;;;;;;;;;;;4.90;99.90;;;;;;5049215;28;19931;-78
2022/05/01 00:44:52;;;;;;;;;;;4.90;99.90;;;;;;5046622;28;19983;-77
2022/05/01 00:47:18;;;;;;;;;;;4.90;99.90;;;;;;5048152;28;20399;-77
2022/05/01 00:49:45;;;;;;;;;;;4.90;99.90;;;;;;5046614;28;20667;-78
2022/05/01 00:52:12;;;;;;;;;;;4.90;99.90;;;;;;5049992;28;20350;-77
2022/05/01 00:54:40;;;;;;;;;;;4.90;99.90;;;;;;5049701;28;19933;-78
2022/05/01 00:57:08;;;;;;;;;;;4.90;99.90;;;;;;5037209;28;20430;-77
2022/05/01 00:59:35;;;;;;;;;;;4.80;99.90;;;;;;5040290;28;20015;-78
2022/05/01 01:02:04;;;;;;;;;;;4.80;99.90;;;;;;5042105;28;19986;-77
2022/05/01 01:04:31;;;;;;;;;;;4.70;99.90;;;;;;5044185;28;19931;-78
2022/05/01 01:06:57;;;;;;;;;;;4.70;99.90;;;;;;5042143;28;20019;-76
2022/05/01 01:09:24;;;;;;;;;;;4.70;99.90;;;;;;5047747;28;19931;-77
2022/05/01 01:12:53;;;;;;;;;;;4.70;99.90;;;;;;5035997;28;19991;-79
2022/05/01 01:14:38;;;;;;;;;;;4.70;99.90;;;;;;5045719;28;20287;-77
2022/05/01 01:17:06;;;;;;;;;;;4.60;99.90;;;;;;5047434;28;19925;-77
2022/05/01 01:19:33;;;;;;;;;;;4.70;99.90;;;;;;5043144;28;20364;-77
2022/05/01 01:22:01;;;;;;;;;;;4.60;99.90;;;;;;5040985;28;20451;-77
2022/05/01 01:24:28;;;;;;;;;;;4.50;99.90;;;;;;5043472;28;19929;-76
2022/05/01 01:26:55;;;;;;;;;;;4.50;99.90;;;;;;5042209;28;19931;-76
2022/05/01 01:32:08;;;;;;;;;;;4.40;99.90;;;;;;5041011;28;20014;-76
2022/05/01 01:34:36;;;;;;;;;;;4.40;99.90;;;;;;5045850;28;19925;-78
2022/05/01 01:37:06;;;;;;;;;;;4.30;99.90;;;;;;5041805;28;19933;-76
2022/05/01 01:39:33;;;;;;;;;;;4.30;99.90;;;;;;5044227;28;19932;-78
2022/05/01 01:42:01;;;;;;;;;;;4.30;99.90;;;;;;5035701;28;19925;-78
2022/05/01 01:44:29;;;;;;;;;;;4.30;99.90;;;;;;5044983;28;20020;-77
2022/05/01 01:46:56;;;;;;;;;;;4.30;99.90;;;;;;5038043;28;19925;-77
2022/05/01 01:49:23;;;;;;;;;;;4.30;99.90;;;;;;5044913;28;19931;-79
2022/05/01 01:51:51;;;;;;;;;;;4.30;99.90;;;;;;5045630;28;19924;-77
2022/05/01 01:54:20;;;;;;;;;;;4.30;99.90;;;;;;5043991;28;19928;-78
2022/05/01 01:56:47;;;;;;;;;;;4.20;99.90;;;;;;5042445;28;20020;-77
2022/05/01 01:59:14;;;;;;;;;;;4.20;99.90;;;;;;5044883;28;19964;-77
2022/05/01 02:01:42;;;;;;;;;;;4.10;99.90;;;;;;5043877;28;19964;-78
2022/05/01 02:04:08;;;;;;;;;;;4.10;99.90;;;;;;5039177;28;19925;-77
2022/05/01 02:06:35;;;;;;;;;;;4.10;99.90;;;;;;5043345;28;19947;-77
2022/05/01 02:09:06;;;;;;;;;;;4.10;99.90;;;;;;5042708;28;20252;-79
2022/05/01 02:11:35;;;;;;;;;;;4.00;99.90;;;;;;5040176;28;19988;-77
2022/05/01 02:14:01;;;;;;;;;;;4.00;99.90;;;;;;5040472;28;19925;-77
2022/05/01 02:16:29;;;;;;;;;;;3.90;99.90;;;;;;5047717;28;19925;-76
2022/05/01 02:18:57;;;;;;;;;;;3.80;99.90;;;;;;5044153;28;19957;-76
2022/05/01 02:21:36;;;;;;;;;;;3.80;99.90;;;;;;5043389;28;20012;-76
2022/05/01 02:24:03;;;;;;;;;;;3.80;99.90;;;;;;5043636;28;19956;-76
2022/05/01 02:26:30;;;;;;;;;;;3.80;99.90;;;;;;5039031;28;20273;-75
2022/05/01 02:28:59;;;;;;;;;;;3.80;99.90;;;;;;5040136;28;19924;-76
2022/05/01 02:31:26;;;;;;;;;;;3.80;99.90;;;;;;5037352;28;19931;-75
2022/05/01 02:33:53;;;;;;;;;;;3.80;99.90;;;;;;5041611;28;19924;-76
2022/05/01 02:36:20;;;;;;;;;;;3.80;99.90;;;;;;5041155;28;19933;-76
2022/05/01 02:38:47;;;;;;;;;;;3.80;99.90;;;;;;5044975;28;19931;-76
2022/05/01 02:41:14;;;;;;;;;;;3.90;99.90;;;;;;5044111;28;20023;-78
2022/05/01 02:43:41;;;;;;;;;;;3.80;99.90;;;;;;5047950;28;20445;-75
2022/05/01 02:46:09;;;;;;;;;;;3.80;99.90;;;;;;5036797;28;19929;-76
2022/05/01 02:48:35;;;;;;;;;;;3.80;99.90;;;;;;5042701;28;19932;-76
2022/05/01 02:51:04;;;;;;;;;;;3.80;99.90;;;;;;5045657;28;19928;-76
2022/05/01 02:53:31;;;;;;;;;;;3.70;99.90;;;;;;5044898;28;19979;-74
2022/05/01 02:56:00;;;;;;;;;;;3.60;99.90;;;;;;5041217;28;19943;-75
2022/05/01 02:58:27;;;;;;;;;;;3.60;99.90;;;;;;5046121;28;19925;-76
2022/05/01 03:00:53;;;;;;;;;;;3.50;99.90;;;;;;5041626;28;20388;-75
2022/05/01 03:03:22;;;;;;;;;;;3.50;99.90;;;;;;5046861;28;19925;-76
2022/05/01 03:05:48;;;;;;;;;;;3.50;99.90;;;;;;5049903;28;19929;-76
2022/05/01 03:08:15;;;;;;;;;;;3.50;99.90;;;;;;5045668;28;19925;-76
2022/05/01 03:10:43;;;;;;;;;;;3.50;99.90;;;;;;5039277;28;20023;-76
2022/05/01 03:13:10;;;;;;;;;;;3.50;99.90;;;;;;5044520;28;19971;-76
2022/05/01 03:15:37;;;;;;;;;;;3.50;99.90;;;;;;5048257;28;19932;-76
2022/05/01 03:23:33;;;;;;;;;;;3.40;99.90;;;;;;5047218;28;19955;-77
2022/05/01 03:26:00;;;;;;;;;;;3.40;99.90;;;;;;5041587;28;19933;-77
2022/05/01 03:28:27;;;;;;;;;;;3.40;99.90;;;;;;5044062;28;20372;-78
2022/05/01 03:30:56;;;;;;;;;;;3.40;99.90;;;;;;5046808;28;19932;-76
2022/05/01 03:33:22;;;;;;;;;;;3.40;99.90;;;;;;5044214;28;19929;-76
2022/05/01 03:35:51;;;;;;;;;;;3.40;99.90;;;;;;5041467;28;19933;-76
2022/05/01 03:38:20;;;;;;;;;;;3.30;99.90;;;;;;5041886;28;20376;-76
2022/05/01 03:40:47;;;;;;;;;;;3.30;99.90;;;;;;5044655;28;19924;-76
2022/05/01 03:43:14;;;;;;;;;;;3.30;99.90;;;;;;5047371;28;19971;-77
2022/05/01 03:45:41;;;;;;;;;;;3.30;99.90;;;;;;5041136;28;19929;-77
2022/05/01 03:48:08;;;;;;;;;;;3.20;99.90;;;;;;5039227;28;19929;-77
2022/05/01 03:50:35;;;;;;;;;;;3.20;99.90;;;;;;5043325;28;19929;-77
2022/05/01 03:53:06;;;;;;;;;;;3.20;99.90;;;;;;5038493;28;19931;-76
2022/05/01 03:55:33;;;;;;;;;;;3.20;99.90;;;;;;5042322;28;19935;-76
2022/05/01 03:58:03;;;;;;;;;;;3.20;99.90;;;;;;5041589;28;19972;-77
2022/05/01 04:00:29;;;;;;;;;;;3.20;99.90;;;;;;5044043;28;20396;-77
2022/05/01 04:02:56;;;;;;;;;;;3.20;99.90;;;;;;5046584;28;19983;-78
2022/05/01 04:05:23;;;;;;;;;;;3.10;99.90;;;;;;5061217;28;19971;-76
2022/05/01 04:07:49;;;;;;;;;;;3.20;99.90;;;;;;5077054;28;19920;-77
2022/05/01 04:10:17;;;;;;;;;;;3.20;99.90;;;;;;5065085;28;19971;-79
2022/05/01 04:12:45;;;;;;;;;;;3.30;99.90;;;;;;5062166;28;19948;-76
2022/05/01 04:15:13;;;;;;;;;;;3.20;99.90;;;;;;5069367;28;19945;-63
2022/05/01 04:17:40;;;;;;;;;;;3.20;99.90;;;;;;5064926;22;19925;-78
2022/05/01 04:36:11;;;;;;;;;;;3.10;99.90;;;;;;5604683;22;19909;-78
2022/05/01 04:38:38;;;;;;;;;;;3.20;99.90;;;;;;5056744;28;19983;-76
2022/05/01 04:41:04;;;;;;;;;;;3.20;99.90;;;;;;5041574;28;20232;-79
2022/05/01 04:43:33;;;;;;;;;;;3.30;99.90;;;;;;5037956;28;19929;-75
2022/05/01 04:46:04;;;;;;;;;;;3.40;99.90;;;;;;5033281;28;20406;-76
2022/05/01 04:48:30;;;;;;;;;;;3.50;99.90;;;;;;5024213;28;19961;-76
2022/05/01 04:50:59;;;;;;;;;;;3.50;99.90;;;;;;5033568;28;19967;-77
2022/05/01 04:53:28;;;;;;;;;;;3.60;99.90;;;;;;5028661;28;20380;-76
2022/05/01 04:57:04;;;;;;;;;;;3.60;99.90;;;;;;5030466;28;19929;-75
2022/05/01 04:58:42;;;;;;;;;;;3.70;99.90;;;;;;5028334;28;20384;-76
2022/05/01 05:01:08;;;;;;;;;;;3.80;99.90;;;;;;5028920;28;19972;-76
2022/05/01 05:03:35;;;;;;;;;;;3.80;99.90;;;;;;5026714;28;19933;-76
2022/05/01 05:06:02;;;;;;;;;;;3.90;99.90;;;;;;5033052;28;19948;-77
2022/05/01 05:11:14;;;;;;;;;;;4.00;99.90;;;;;;5028124;28;20039;-76
2022/05/01 05:13:41;;;;;;;;;;;4.20;99.90;;;;;;5027248;28;20396;-77
2022/05/01 05:16:13;;;;;;;;;;;4.20;99.90;;;;;;5029176;28;19926;-76
2022/05/01 05:18:43;;;;;;;;;;;4.30;99.90;;;;;;5028594;28;20336;-76
2022/05/01 05:21:12;;;;;;;;;;;4.40;99.90;;;;;;5030500;28;19933;-76
2022/05/01 05:23:40;;;;;;;;;;;4.50;99.90;;;;;;5029065;28;19929;-75
2022/05/01 05:26:09;;;;;;;;;;;4.50;99.90;;;;;;5028644;28;19994;-76
2022/05/01 05:28:36;;;;;;;;;;;4.50;99.90;;;;;;5029418;28;20019;-76
2022/05/01 05:31:03;;;;;;;;;;;4.60;99.90;;;;;;5030249;28;20055;-76
2022/05/01 05:33:30;;;;;;;;;;;4.50;99.90;;;;;;5033450;28;19932;-76
2022/05/01 05:35:57;;;;;;;;;;;4.60;99.90;;;;;;5026765;28;19925;-76
2022/05/01 05:38:24;;;;;;;;;;;4.70;99.90;;;;;;5028456;28;19928;-77
2022/05/01 05:40:54;;;;;;;;;;;4.80;99.90;;;;;;5027862;28;20019;-76
2022/05/01 05:43:21;;;;;;;;;;;4.90;99.90;;;;;;5032482;28;20397;-76
2022/05/01 05:45:47;;;;;;;;;;;5.00;99.90;;;;;;5026282;28;19944;-76
2022/05/01 05:48:14;;;;;;;;;;;5.10;99.90;;;;;;5029805;28;20400;-77
2022/05/01 05:50:43;;;;;;;;;;;5.20;99.90;;;;;;5030053;28;19976;-76
2022/05/01 05:53:10;;;;;;;;;;;5.40;99.90;;;;;;5026921;28;19929;-76
2022/05/01 05:55:37;;;;;;;;;;;5.50;99.90;;;;;;5029449;28;19929;-77
2022/05/01 05:58:05;;;;;;;;;;;5.60;99.90;;;;;;5025769;28;20041;-75
2022/05/01 06:00:32;;;;;;;;;;;5.70;99.90;;;;;;5025347;28;19935;-76
2022/05/01 06:02:59;;;;;;;;;;;5.80;99.90;;;;;;5032049;28;19932;-76
2022/05/01 06:05:25;;;;;;;;;;;5.90;99.90;;;;;;5027763;28;19939;-75
2022/05/01 06:07:52;;;;;;;;;;;5.90;99.90;;;;;;5026678;28;19979;-76
2022/05/01 06:10:19;;;;;;;;;;;6.00;99.90;;;;;;5033631;28;19925;-76
2022/05/01 06:12:45;;;;;;;;;;;6.10;99.90;;;;;;5032095;28;19929;-78
2022/05/01 06:15:13;;;;;;;;;;;6.20;99.90;;;;;;5030684;28;19975;-76
2022/05/01 06:17:43;;;;;;;;;;;6.30;99.90;;;;;;5028793;28;19929;-77
2022/05/01 06:20:10;;;;;;;;;;;6.60;99.90;;;;;;5031121;28;19932;-76
2022/05/01 06:22:37;;;;;;;;;;;6.80;99.90;;;;;;5030034;28;19925;-77
2022/05/01 06:25:04;;;;;;;;;;;7.00;99.90;;;;;;5030965;28;19932;-76
2022/05/01 06:27:31;;;;;;;;;;;7.30;99.90;;;;;;5036808;28;19941;-76
2022/05/01 06:29:58;;;;;;;;;;;7.60;99.90;;;;;;5027035;28;19935;-75
2022/05/01 06:32:26;;;;;;;;;;;7.70;99.90;;;;;;5027166;28;19932;-76
2022/05/01 06:34:53;;;;;;;;;;;7.90;99.90;;;;;;5029670;28;20241;-75
2022/05/01 06:37:20;;;;;;;;;;;8.00;99.90;;;;;;5024979;28;20033;-79
2022/05/01 06:39:47;;;;;;;;;;;8.20;99.90;;;;;;5026180;28;20021;-78
2022/05/01 06:42:14;;;;;;;;;;;8.40;99.90;;;;;;5023882;28;21802;-77
2022/05/01 06:44:41;;;;;;;;;;;8.70;99.90;;;;;;5025298;28;20407;-75
2022/05/01 06:47:08;;;;;;;;;;;9.00;99.90;;;;;;5025586;28;20471;-75
2022/05/01 06:49:36;;;;;;;;;;;9.30;99.90;;;;;;5024411;28;19955;-76
2022/05/01 06:52:03;;;;;;;;;;;9.50;99.90;;;;;;5025010;28;19987;-78
2022/05/01 06:54:29;;;;;;;;;;;9.70;99.90;;;;;;5026648;28;19925;-76
2022/05/01 06:56:56;;;;;;;;;;;9.90;99.90;;;;;;5025323;28;19940;-77
2022/05/01 06:59:23;;;;;;;;;;;10.40;99.90;;;;;;5027781;28;19933;-76
2022/05/01 07:01:49;;;;;;;;;;;11.30;99.90;;;;;;5026622;28;19937;-76
2022/05/01 07:04:16;;;;;;;;;;;12.10;98.60;;;;;;5026916;28;20071;-84
2022/05/01 07:06:45;;;;;;;;;;;12.60;95.90;;;;;;5027526;28;20396;-84
2022/05/01 07:09:12;;;;;;;;;;;13.30;93.30;;;;;;5029530;28;20392;-75
2022/05/01 07:11:39;;;;;;;;;;;13.40;90.50;;;;;;5028826;28;19925;-76
2022/05/01 07:14:06;;;;;;;;;;;13.60;89.40;;;;;;5029743;28;20299;-76
2022/05/01 07:16:32;;;;;;;;;;;14.40;87.60;;;;;;5027548;28;19933;-76
2022/05/01 07:18:59;;;;;;;;;;;14.60;79.40;;;;;;5028031;28;20032;-75
2022/05/01 07:21:26;;;;;;;;;;;15.20;73.20;;;;;;5029300;28;19928;-78
2022/05/01 07:23:54;;;;;;;;;;;15.40;67.40;;;;;;5026924;28;19968;-77
2022/05/01 07:26:20;;;;;;;;;;;15.50;66.00;;;;;;5028016;28;19952;-76
2022/05/01 07:28:47;;;;;;;;;;;16.40;60.80;;;;;;5026711;28;20021;-76
2022/05/01 07:31:14;;;;;;;;;;;17.00;55.40;;;;;;5030349;28;19932;-74
2022/05/01 07:33:40;;;;;;;;;;;14.90;57.90;;;;;;5032644;28;19979;-75
2022/05/01 07:36:08;;;;;;;;;;;14.00;63.80;;;;;;5024449;28;20028;-73
2022/05/01 07:38:34;;;;;;;;;;;13.60;64.60;;;;;;5032072;28;19994;-73
2022/05/01 07:41:03;;;;;;;;;;;14.50;63.00;;;;;;5026977;28;20030;-74
2022/05/01 07:43:32;;;;;;;;;;;13.50;66.30;;;;;;5026039;28;19931;-75
2022/05/01 07:45:59;;;;;;;;;;;14.10;67.00;;;;;;5025558;28;20389;-75
2022/05/01 07:48:25;;;;;;;;;;;15.00;62.90;;;;;;5027465;28;20012;-74
2022/05/01 07:50:52;;;;;;;;;;;14.30;59.40;;;;;;5035856;28;19970;-73
2022/05/01 07:53:19;;;;;;;;;;;14.90;64.80;;;;;;5032662;28;20011;-73
2022/05/01 07:55:45;;;;;;;;;;;16.80;58.50;;;;;;5024520;28;20296;-77
2022/05/01 07:58:14;;;;;;;;;;;16.00;54.50;;;;;;5028271;28;20118;-77
2022/05/01 08:00:40;;;;;;;;;;;14.10;60.00;;;;;;5028876;28;20455;-77
2022/05/01 08:05:51;;;;;;;;;;;15.90;58.70;;;;;;5029910;28;19947;-76
2022/05/01 08:08:18;;;;;;;;;;;16.80;52.60;;;;;;5031197;28;20020;-75
2022/05/01 08:10:45;;;;;;;;;;;16.20;51.60;;;;;;5035721;28;19926;-77
2022/05/01 08:13:11;;;;;;;;;;;15.50;52.90;;;;;;5031834;28;19932;-76
2022/05/01 08:15:39;;;;;;;;;;;15.50;54.20;;;;;;5031452;28;20003;-78
2022/05/01 08:21:08;;;;;;;;;;;16.20;47.50;;;;;;5019671;28;19929;-75
2022/05/01 08:23:36;;;;;;;;;;;14.40;52.50;;;;;;5023921;28;19932;-78
2022/05/01 08:26:03;;;;;;;;;;;16.50;49.40;;;;;;5024424;28;19987;-75
2022/05/01 08:28:30;;;;;;;;;;;16.10;49.50;;;;;;5037192;28;20000;-75
2022/05/01 08:30:59;;;;;;;;;;;18.60;44.20;;;;;;5027509;28;20324;-75
2022/05/01 08:33:27;;;;;;;;;;;18.10;38.90;;;;;;5026491;28;19978;-76
2022/05/01 08:35:54;;;;;;;;;;;15.60;45.60;;;;;;5028123;28;19925;-77
2022/05/01 08:38:21;;;;;;;;;;;15.40;48.00;;;;;;5034016;28;19925;-74
2022/05/01 08:40:49;;;;;;;;;;;15.20;47.30;;;;;;5036839;28;20249;-76
2022/05/01 08:43:16;;;;;;;;;;;16.80;44.30;;;;;;5027785;28;20027;-76
2022/05/01 08:45:49;;;;;;;;;;;15.20;45.80;;;;;;5033481;28;19929;-74
2022/05/01 08:48:20;;;;;;;;;;;14.60;47.70;;;;;;5033172;28;19960;-77
2022/05/01 08:50:47;;;;;;;;;;;15.30;46.20;;;;;;5029771;28;19925;-77
2022/05/01 08:53:14;;;;;;;;;;;15.70;47.20;;;;;;5026753;28;19932;-77
2022/05/01 08:55:41;;;;;;;;;;;16.70;44.30;;;;;;5025192;28;19925;-76
2022/05/01 08:58:08;;;;;;;;;;;19.00;37.60;;;;;;5025666;28;19937;-75
2022/05/01 09:00:36;;;;;;;;;;;18.40;36.40;;;;;;5035747;28;19929;-76
2022/05/01 09:03:04;;;;;;;;;;;20.00;32.40;;;;;;5035979;28;20347;-74
2022/05/01 09:05:32;;;;;;;;;;;20.40;31.90;;;;;;5023549;28;20020;-75
2022/05/01 09:07:58;;;;;;;;;;;21.60;27.80;;;;;;5022095;28;19925;-76
2022/05/01 09:10:27;;;;;;;;;;;19.90;27.80;;;;;;5016771;28;20296;-78
2022/05/01 09:12:53;;;;;;;;;;;16.10;34.00;;;;;;5025960;28;20446;-75
2022/05/01 09:15:32;;;;;;;;;;;14.70;35.50;;;;;;5035524;28;19924;-75
2022/05/01 09:17:59;;;;;;;;;;;14.70;37.40;;;;;;5036659;28;19955;-76
2022/05/01 09:20:26;;;;;;;;;;;16.00;31.80;;;;;;5036659;28;20384;-75
2022/05/01 09:22:55;;;;;;;;;;;15.20;31.90;;;;;;5041717;28;20032;-76
2022/05/01 09:25:23;;;;;;;;;;;14.80;31.70;;;;;;5028109;28;19924;-75
2022/05/01 09:27:51;;;;;;;;;;;14.40;34.80;;;;;;5020965;28;20385;-75
2022/05/01 09:30:20;;;;;;;;;;;15.00;32.50;;;;;;5033711;28;20001;-75
2022/05/01 09:32:47;;;;;;;;;;;15.20;35.80;;;;;;5027551;28;19961;-74
2022/05/01 09:35:15;;;;;;;;;;;15.20;34.60;;;;;;5033093;28;20295;-78
2022/05/01 09:37:43;;;;;;;;;;;14.80;35.80;;;;;;5034241;28;19968;-74
2022/05/01 09:40:13;;;;;;;;;;;14.60;36.00;;;;;;5027767;28;19933;-74
2022/05/01 09:42:40;;;;;;;;;;;15.00;31.70;;;;;;5039311;28;20418;-74
2022/05/01 09:45:07;;;;;;;;;;;15.30;32.50;;;;;;5040765;28;19925;-75
2022/05/01 09:47:38;;;;;;;;;;;15.10;33.10;;;;;;5038463;28;19967;-76
2022/05/01 09:50:05;;;;;;;;;;;15.10;31.90;;;;;;5028449;28;19937;-75
2022/05/01 09:52:51;;;;;;;;;;;14.80;34.20;;;;;;5033113;28;20380;-73
2022/05/01 09:55:19;;;;;;;;;;;14.50;34.40;;;;;;5029699;28;20008;-75
2022/05/01 09:57:46;;;;;;;;;;;15.40;31.90;;;;;;5034552;28;20011;-75
2022/05/01 10:00:35;;;;;;;;;;;15.90;30.40;;;;;;5031094;28;20315;-75
2022/05/01 10:03:16;;;;;;;;;;;16.20;30.00;;;;;;5025341;28;19929;-73
2022/05/01 10:05:43;;;;;;;;;;;16.40;29.80;;;;;;5027582;28;20410;-72
2022/05/01 10:08:10;;;;;;;;;;;16.60;28.40;;;;;;5030070;28;19940;-74
2022/05/01 10:10:39;;;;;;;;;;;16.50;26.60;;;;;;5043246;28;20041;-77
2022/05/01 10:13:06;;;;;;;;;;;16.00;26.30;;;;;;5037127;28;20315;-79
2022/05/01 10:15:37;;;;;;;;;;;15.90;27.30;;;;;;5032210;28;19933;-74
2022/05/01 10:18:04;;;;;;;;;;;15.90;27.60;;;;;;5029640;28;19925;-72
2022/05/01 10:20:31;;;;;;;;;;;15.70;27.60;;;;;;5032904;28;20007;-71
2022/05/01 10:22:59;;;;;;;;;;;15.20;28.60;;;;;;5029094;28;20031;-72
2022/05/01 10:25:26;;;;;;;;;;;14.90;30.10;;;;;;5029983;28;20020;-72
2022/05/01 10:27:57;;;;;;;;;;;14.40;29.40;;;;;;5028498;28;19947;-72
2022/05/01 10:33:19;;;;;;;;;;;14.60;29.70;;;;;;5023736;28;20329;-70
2022/05/01 10:36:05;;;;;;;;;;;14.70;29.90;;;;;;5023295;28;19929;-71
2022/05/01 10:38:42;;;;;;;;;;;15.10;30.30;;;;;;5027310;28;20334;-71
2022/05/01 10:41:11;;;;;;;;;;;15.70;28.80;;;;;;5024595;28;19925;-73
2022/05/01 10:43:39;;;;;;;;;;;15.90;28.30;;;;;;5027604;28;19933;-71
2022/05/01 10:46:25;;;;;;;;;;;16.30;28.00;;;;;;5018404;28;20427;-71
2022/05/01 10:48:54;;;;;;;;;;;16.60;27.00;;;;;;5023808;28;20008;-72
2022/05/01 10:51:40;;;;;;;;;;;15.90;27.60;;;;;;5026593;28;19925;-72
2022/05/01 10:54:25;;;;;;;;;;;15.50;29.10;;;;;;5022684;28;19964;-70
2022/05/01 10:56:53;;;;;;;;;;;14.90;29.10;;;;;;5025640;28;20024;-76
2022/05/01 11:02:24;;;;;;;;;;;14.40;31.60;;;;;;5081287;27;20363;-73
2022/05/01 11:04:52;;;;;;;;;;;14.60;30.30;;;;;;5082397;28;19931;-77
2022/05/01 11:07:18;;;;;;;;;;;15.40;28.60;;;;;;5081707;28;19924;-80
2022/05/01 11:09:46;;;;;;;;;;;16.30;27.90;;;;;;5079501;28;19936;-75
2022/05/01 11:12:14;;;;;;;;;;;16.70;27.30;;;;;;5079229;28;19971;-74
2022/05/01 11:14:41;;;;;;;;;;;16.50;27.00;;;;;;5076967;28;19924;-75
2022/05/01 11:17:09;;;;;;;;;;;17.00;26.70;;;;;;5084753;28;19947;-74
2022/05/01 11:19:45;;;;;;;;;;;17.50;25.60;;;;;;5083507;28;19931;-74
2022/05/01 11:22:12;;;;;;;;;;;17.70;24.20;;;;;;5083786;28;19942;-74
2022/05/01 11:24:43;;;;;;;;;;;17.90;23.10;;;;;;5082086;28;19942;-74
2022/05/01 11:27:13;;;;;;;;;;;17.80;22.80;;;;;;5083063;28;19932;-73
2022/05/01 11:30:00;;;;;;;;;;;17.30;24.10;;;;;;5092556;28;20399;-73
2022/05/01 11:32:27;;;;;;;;;;;16.70;24.50;;;;;;5077576;28;20003;-72
2022/05/01 11:34:55;;;;;;;;;;;16.00;25.60;;;;;;5086849;28;19971;-74
2022/05/01 11:37:25;;;;;;;;;;;16.30;25.20;;;;;;5085898;28;19931;-73
2022/05/01 11:40:15;;;;;;;;;;;15.70;24.30;;;;;;5085179;28;20035;-74
2022/05/01 11:42:42;;;;;;;;;;;15.00;23.70;;;;;;5082745;28;19983;-74
2022/05/01 11:45:11;;;;;;;;;;;14.40;22.80;;;;;;5084367;28;19931;-74
2022/05/01 11:47:38;;;;;;;;;;;14.60;25.80;;;;;;5084717;28;19960;-73
2022/05/01 11:50:07;;;;;;;;;;;14.60;24.40;;;;;;5088939;28;19978;-74
2022/05/01 11:52:37;;;;;;;;;;;14.40;23.40;;;;;;5081055;28;21915;-75
2022/05/01 11:55:06;;;;;;;;;;;14.70;24.50;;;;;;5095846;28;20004;-74
2022/05/01 12:03:27;;;;;;;;;;;15.30;22.10;;;;;;5079012;28;20015;-74
2022/05/01 12:05:55;;;;;;;;;;;16.00;21.70;;;;;;5095006;28;19947;-74
2022/05/01 12:08:22;;;;;;;;;;;16.30;21.00;;;;;;5111571;28;19969;-74
2022/05/01 12:10:49;;;;;;;;;;;16.60;20.00;;;;;;5114095;28;19924;-74
2022/05/01 12:13:17;;;;;;;;;;;16.80;19.60;;;;;;5092882;28;19939;-74
2022/05/01 12:15:44;;;;;;;;;;;16.10;21.00;;;;;;5094052;28;20007;-76
2022/05/01 12:18:10;;;;;;;;;;;14.50;22.90;;;;;;5103021;28;19930;-76
2022/05/01 12:20:37;;;;;;;;;;;14.50;23.50;;;;;;5093300;28;20026;-75
2022/05/01 12:23:11;;;;;;;;;;;15.10;21.90;;;;;;5090129;28;19975;-74
2022/05/01 12:25:40;;;;;;;;;;;15.50;21.10;;;;;;5087919;28;20002;-73
2022/05/01 12:28:08;;;;;;;;;;;16.00;21.80;;;;;;5089403;28;20019;-74
2022/05/01 12:30:34;;;;;;;;;;;15.10;21.00;;;;;;5087886;28;20007;-73
2022/05/01 12:33:03;;;;;;;;;;;15.20;22.40;;;;;;5090190;28;19931;-75
2022/05/01 12:35:50;;;;;;;;;;;15.30;22.30;;;;;;5089875;28;19969;-74
2022/05/01 12:38:18;;;;;;;;;;;15.20;22.50;;;;;;5091241;28;19924;-74
2022/05/01 12:46:27;;;;;;;;;;;16.80;20.30;;;;;;5087380;28;20057;-75
2022/05/01 12:48:54;;;;;;;;;;;16.90;19.00;;;;;;5104576;28;20283;-75
2022/05/01 12:51:24;;;;;;;;;;;17.10;19.50;;;;;;5088705;28;20458;-75
2022/05/01 12:54:08;;;;;;;;;;;17.30;19.20;;;;;;5087957;28;19924;-74
2022/05/01 12:56:35;;;;;;;;;;;17.70;18.50;;;;;;5082368;28;20276;-74
2022/05/01 12:59:18;;;;;;;;;;;17.80;17.90;;;;;;5090499;28;20550;-75
2022/05/01 13:01:44;;;;;;;;;;;17.20;20.40;;;;;;5082379;28;19953;-73
2022/05/01 13:04:21;;;;;;;;;;;16.10;20.60;;;;;;5078966;28;19928;-74
2022/05/01 13:06:48;;;;;;;;;;;16.50;21.00;;;;;;5094230;28;20359;-75
2022/05/01 13:09:16;;;;;;;;;;;16.70;20.00;;;;;;5105060;28;19924;-74
2022/05/01 13:11:58;;;;;;;;;;;17.20;19.70;;;;;;5090535;28;19924;-74
2022/05/01 13:14:28;;;;;;;;;;;16.80;20.40;;;;;;5102913;28;19924;-74
2022/05/01 13:16:57;;;;;;;;;;;16.70;20.30;;;;;;5093633;28;20009;-74
2022/05/01 13:19:26;;;;;;;;;;;16.80;20.30;;;;;;5096137;28;19931;-75
2022/05/01 13:21:54;;;;;;;;;;;16.60;20.80;;;;;;5096581;28;20023;-75
2022/05/01 13:24:26;;;;;;;;;;;15.50;21.30;;;;;;5100487;28;20109;-75
2022/05/01 13:26:53;;;;;;;;;;;15.60;22.50;;;;;;5094979;28;20039;-74
2022/05/01 13:29:19;;;;;;;;;;;15.70;22.10;;;;;;5086206;28;19924;-75
2022/05/01 13:31:48;;;;;;;;;;;16.00;21.50;;;;;;5086946;28;19924;-77
2022/05/01 13:34:15;;;;;;;;;;;16.40;21.10;;;;;;5090022;28;19954;-78
2022/05/01 13:36:42;;;;;;;;;;;16.50;20.80;;;;;;5088890;28;19955;-79
2022/05/01 13:39:09;;;;;;;;;;;16.60;20.80;;;;;;5108184;28;20474;-80
2022/05/01 13:47:06;;;;;;;;;;;16.80;20.20;;;;;;5078781;28;19924;-73
2022/05/01 13:49:34;;;;;;;;;;;17.30;19.60;;;;;;5086570;28;19924;-75
2022/05/01 13:52:01;;;;;;;;;;;17.60;19.90;;;;;;5082699;28;20307;-75
2022/05/01 13:54:28;;;;;;;;;;;17.70;18.90;;;;;;5084224;28;19967;-73
2022/05/01 13:56:56;;;;;;;;;;;17.90;18.60;;;;;;5090165;28;19924;-73
2022/05/01 13:59:23;;;;;;;;;;;17.80;18.50;;;;;;5095827;28;19924;-75
2022/05/01 14:01:51;;;;;;;;;;;17.40;18.90;;;;;;5092342;28;19928;-75
2022/05/01 14:04:18;;;;;;;;;;;17.40;19.30;;;;;;5097214;28;20440;-77
2022/05/01 14:06:45;;;;;;;;;;;17.50;20.10;;;;;;5094197;28;19924;-77
2022/05/01 14:09:17;;;;;;;;;;;17.60;19.90;;;;;;5095810;28;20018;-76
2022/05/01 14:11:44;;;;;;;;;;;16.90;20.00;;;;;;5089980;28;20023;-75
2022/05/01 14:14:13;;;;;;;;;;;16.40;21.30;;;;;;5083232;28;19928;-76
2022/05/01 14:16:41;;;;;;;;;;;16.00;22.50;;;;;;5076286;28;19925;-75
2022/05/01 14:19:08;;;;;;;;;;;15.60;22.00;;;;;;5074467;28;19964;-76
2022/05/01 14:21:37;;;;;;;;;;;15.80;22.00;;;;;;5093249;28;19930;-77
2022/05/01 14:24:05;;;;;;;;;;;16.10;22.00;;;;;;5078081;28;19951;-75
2022/05/01 14:26:32;;;;;;;;;;;16.50;21.40;;;;;;5080732;28;19924;-77
2022/05/01 14:28:58;;;;;;;;;;;16.90;20.40;;;;;;5088854;28;19924;-78
2022/05/01 14:31:31;;;;;;;;;;;16.80;20.70;;;;;;5081155;28;20014;-77
2022/05/01 14:34:00;;;;;;;;;;;16.90;20.80;;;;;;5081877;28;19931;-76
2022/05/01 14:36:30;;;;;;;;;;;16.90;20.10;;;;;;5084441;28;20007;-77
2022/05/01 14:39:03;;;;;;;;;;;16.10;21.40;;;;;;5082635;28;20322;-76
2022/05/01 14:41:33;;;;;;;;;;;16.20;22.00;;;;;;5078097;28;19949;-74
2022/05/01 14:44:02;;;;;;;;;;;16.40;21.10;;;;;;5093219;28;19924;-74
2022/05/01 14:46:30;;;;;;;;;;;16.70;20.50;;;;;;5079659;28;20007;-74
2022/05/01 14:49:03;;;;;;;;;;;16.90;20.70;;;;;;5076861;28;20002;-74
2022/05/01 14:51:32;;;;;;;;;;;16.40;21.60;;;;;;5092800;28;19924;-73
2022/05/01 14:54:01;;;;;;;;;;;16.00;21.70;;;;;;5092619;28;19928;-74
2022/05/01 14:56:29;;;;;;;;;;;16.70;21.00;;;;;;5081767;28;19924;-74
2022/05/01 15:07:13;;;;;;;;;;;17.70;19.70;;;;;;5083616;28;20332;-74
2022/05/01 15:09:39;;;;;;;;;;;17.70;19.50;;;;;;5099377;28;19924;-74
2022/05/01 15:12:07;;;;;;;;;;;17.50;19.30;;;;;;5095392;28;20006;-74
2022/05/01 15:14:35;;;;;;;;;;;16.60;20.00;;;;;;5086238;28;20002;-75
2022/05/01 15:17:05;;;;;;;;;;;16.40;21.00;;;;;;5090604;28;19924;-82
2022/05/01 15:19:37;;;;;;;;;;;16.20;20.90;;;;;;5090963;28;20446;-81
2022/05/01 15:22:24;;;;;;;;;;;15.60;21.90;;;;;;5109942;28;20401;-82
2022/05/01 15:25:01;;;;;;;;;;;15.60;23.50;;;;;;5104670;28;19963;-80
2022/05/01 15:27:41;;;;;;;;;;;15.80;22.10;;;;;;5088631;28;19924;-83
2022/05/01 15:30:08;;;;;;;;;;;15.60;22.40;;;;;;5088734;28;20043;-86
2022/05/01 15:33:17;;;;;;;;;;;15.80;22.40;;;;;;5089516;28;19932;-83
2022/05/01 15:35:30;;;;;;;;;;;16.00;23.20;;;;;;5095544;28;20000;-85
2022/05/01 15:37:58;;;;;;;;;;;16.30;22.00;;;;;;5097344;28;19924;-78